Time;durP1;ratioP1;P1;durP2;ratioP2;P2;SDS_P1;SDS_P2;PMS_P1;PMS_P2;Temp;Humidity;BMP_temperature;BMP_pressure;BME280_temperature;BME280_humidity;BME280_pressure;Samples;Min_cycle;Max_cycle;Signal;HPM_P1;HPM_P2
2024/03/27 00:00:19;;;;;;;4.75;3.22;;;10.40;84.60;;;;;;5005823;28;20041;-66
2024/03/27 00:03:06;;;;;;;4.85;3.53;;;10.40;84.60;;;;;;4998355;28;20038;-66
2024/03/27 00:05:52;;;;;;;5.38;3.15;;;10.40;84.60;;;;;;5001840;28;20096;-66
2024/03/27 00:08:37;;;;;;;5.80;3.60;;;10.30;84.70;;;;;;5000390;28;20034;-66
2024/03/27 00:11:27;;;;;;;7.75;3.42;;;10.30;84.70;;;;;;5005218;28;20121;-65
2024/03/27 00:14:14;;;;;;;5.80;3.28;;;10.30;84.80;;;;;;5012644;28;20131;-65
2024/03/27 00:17:00;;;;;;;6.53;3.70;;;10.30;84.80;;;;;;5002419;28;20073;-66
2024/03/27 00:19:46;;;;;;;6.10;3.58;;;10.20;85.00;;;;;;5011873;28;20033;-65
2024/03/27 00:22:32;;;;;;;5.18;3.35;;;10.20;85.00;;;;;;5005377;28;20038;-65
2024/03/27 00:25:19;;;;;;;7.20;4.43;;;10.20;85.10;;;;;;5012620;28;20026;-66
2024/03/27 00:28:05;;;;;;;6.05;3.08;;;10.10;85.30;;;;;;5005728;28;20034;-66
2024/03/27 00:30:52;;;;;;;5.47;3.78;;;10.10;85.30;;;;;;5003679;28;20029;-66
2024/03/27 00:33:37;;;;;;;5.20;3.38;;;10.10;85.30;;;;;;5005739;28;20088;-67
2024/03/27 00:36:23;;;;;;;4.80;3.00;;;10.10;85.30;;;;;;5005039;28;20034;-67
2024/03/27 00:39:09;;;;;;;5.53;3.63;;;10.10;85.30;;;;;;5006066;28;20057;-66
2024/03/27 00:41:55;;;;;;;5.13;3.35;;;10.00;85.30;;;;;;4992780;28;20066;-66
2024/03/27 00:44:41;;;;;;;5.55;3.40;;;9.90;85.30;;;;;;5006987;28;20060;-67
2024/03/27 00:47:28;;;;;;;5.38;3.53;;;9.90;85.40;;;;;;4993228;28;20026;-66
2024/03/27 00:50:14;;;;;;;7.18;4.47;;;9.90;85.50;;;;;;5001246;28;20057;-66
2024/03/27 00:53:02;;;;;;;5.07;3.30;;;9.90;85.50;;;;;;5003235;28;20068;-67
2024/03/27 00:55:58;;;;;;;6.40;3.85;;;9.80;85.50;;;;;;5006150;28;20030;-66
2024/03/27 00:58:44;;;;;;;11.05;4.10;;;9.80;85.50;;;;;;5010054;28;20037;-65
2024/03/27 01:01:30;;;;;;;6.50;3.45;;;9.80;85.60;;;;;;5006791;28;20478;-65
2024/03/27 01:04:16;;;;;;;6.93;3.88;;;9.70;85.60;;;;;;5008311;28;20054;-66
2024/03/27 01:07:02;;;;;;;5.70;3.92;;;9.80;85.80;;;;;;5006736;28;20109;-66
2024/03/27 01:09:49;;;;;;;6.90;3.40;;;9.70;85.80;;;;;;5008610;28;20034;-65
2024/03/27 01:12:38;;;;;;;7.15;3.55;;;9.70;86.00;;;;;;5003209;28;20106;-66
2024/03/27 01:15:24;;;;;;;7.13;3.50;;;9.60;86.00;;;;;;5008219;28;20029;-65
2024/03/27 01:18:09;;;;;;;6.05;3.72;;;9.60;86.00;;;;;;5003292;28;20034;-65
2024/03/27 01:20:55;;;;;;;7.55;3.65;;;9.60;86.10;;;;;;4998740;28;20036;-65
2024/03/27 01:23:41;;;;;;;5.72;3.50;;;9.60;86.20;;;;;;4998817;28;20064;-64
2024/03/27 01:26:27;;;;;;;8.18;3.28;;;9.60;86.20;;;;;;5009767;28;20041;-65
2024/03/27 01:29:13;;;;;;;5.13;3.03;;;9.50;86.20;;;;;;5011746;28;20040;-64
2024/03/27 01:31:59;;;;;;;5.75;3.80;;;9.50;86.30;;;;;;4997088;28;20092;-64
2024/03/27 01:34:45;;;;;;;5.25;3.80;;;9.40;86.30;;;;;;4999237;28;20033;-64
2024/03/27 01:37:31;;;;;;;6.55;4.07;;;9.40;86.50;;;;;;5007689;28;20064;-64
2024/03/27 01:40:17;;;;;;;5.20;3.28;;;9.40;86.60;;;;;;5014126;28;20030;-64
2024/03/27 01:43:03;;;;;;;6.20;3.80;;;9.30;86.50;;;;;;5005704;28;20042;-64
2024/03/27 01:45:49;;;;;;;5.53;3.55;;;9.30;86.70;;;;;;5014795;28;20029;-64
2024/03/27 01:48:35;;;;;;;8.05;4.05;;;9.30;86.70;;;;;;5010536;28;20088;-65
2024/03/27 01:51:22;;;;;;;6.47;3.50;;;9.20;86.60;;;;;;4994957;28;20026;-65
2024/03/27 01:54:09;;;;;;;6.38;3.58;;;9.20;86.70;;;;;;5005273;28;20034;-64
2024/03/27 01:56:58;;;;;;;6.80;3.72;;;9.20;86.80;;;;;;5013241;28;20124;-65
2024/03/27 01:59:44;;;;;;;6.70;3.85;;;9.20;86.90;;;;;;5007653;28;20140;-65
2024/03/27 02:02:31;;;;;;;5.38;3.60;;;9.10;86.90;;;;;;5012080;28;20069;-66
2024/03/27 02:05:19;;;;;;;7.47;4.10;;;9.10;87.00;;;;;;4996014;28;20097;-65
2024/03/27 02:08:05;;;;;;;5.20;3.50;;;9.10;87.00;;;;;;5007407;28;20120;-65
2024/03/27 02:10:51;;;;;;;6.88;3.78;;;9.10;87.00;;;;;;4998738;28;20105;-64
2024/03/27 02:13:37;;;;;;;6.45;3.28;;;9.00;87.00;;;;;;5011072;28;20033;-65
2024/03/27 02:16:22;;;;;;;5.57;3.53;;;9.00;87.10;;;;;;5011549;28;20041;-65
2024/03/27 02:19:08;;;;;;;6.82;3.75;;;9.00;87.20;;;;;;5013295;28;20030;-67
2024/03/27 02:21:55;;;;;;;5.20;3.13;;;8.90;87.20;;;;;;5014344;28;20105;-66
2024/03/27 02:24:47;;;;;;;6.95;4.45;;;8.90;87.30;;;;;;5006399;28;20108;-67
2024/03/27 02:27:33;;;;;;;6.75;3.60;;;8.90;87.50;;;;;;4995793;28;20070;-66
2024/03/27 02:30:19;;;;;;;5.10;3.58;;;8.80;87.50;;;;;;5004893;28;20080;-66
2024/03/27 02:33:05;;;;;;;5.80;3.47;;;8.80;87.60;;;;;;5012432;28;20069;-67
2024/03/27 02:35:51;;;;;;;7.20;3.78;;;8.80;87.70;;;;;;5010696;28;20029;-66
2024/03/27 02:38:37;;;;;;;6.80;4.20;;;8.80;87.60;;;;;;5002836;28;20045;-66
2024/03/27 02:41:24;;;;;;;7.72;3.40;;;8.80;87.60;;;;;;5008930;28;20038;-67
2024/03/27 02:44:11;;;;;;;4.88;3.13;;;8.80;87.70;;;;;;5007906;28;20557;-67
2024/03/27 02:46:57;;;;;;;6.07;4.00;;;8.70;87.70;;;;;;5003408;28;20516;-66
2024/03/27 02:49:42;;;;;;;5.22;3.05;;;8.70;87.80;;;;;;5010595;28;20024;-66
2024/03/27 02:52:28;;;;;;;6.22;3.28;;;8.70;87.90;;;;;;5014362;28;20037;-66
2024/03/27 02:55:14;;;;;;;5.50;3.70;;;8.60;87.90;;;;;;5005951;28;20031;-66
2024/03/27 02:58:00;;;;;;;5.80;3.40;;;8.60;88.00;;;;;;5006810;28;20064;-66
2024/03/27 03:00:46;;;;;;;7.10;3.63;;;8.60;88.10;;;;;;5011278;28;20038;-66
2024/03/27 03:03:32;;;;;;;4.68;3.28;;;8.60;88.20;;;;;;4999883;28;20041;-66
2024/03/27 03:06:18;;;;;;;4.50;3.03;;;8.60;88.20;;;;;;4991412;28;20050;-66
2024/03/27 03:09:06;;;;;;;5.60;3.40;;;8.50;88.20;;;;;;4991431;28;20073;-66
2024/03/27 03:11:52;;;;;;;6.47;3.60;;;8.50;88.30;;;;;;4992258;28;20091;-65
2024/03/27 03:14:38;;;;;;;6.10;3.20;;;8.50;88.20;;;;;;4984029;28;20038;-65
2024/03/27 03:17:24;;;;;;;6.18;3.47;;;8.50;88.40;;;;;;4985811;28;20053;-66
2024/03/27 03:20:12;;;;;;;5.15;3.30;;;8.40;88.40;;;;;;4980130;28;20034;-66
2024/03/27 03:22:58;;;;;;;6.05;3.72;;;8.40;88.50;;;;;;4984265;28;20035;-66
2024/03/27 03:25:44;;;;;;;4.88;3.17;;;8.40;88.70;;;;;;4984910;28;20395;-66
2024/03/27 03:28:30;;;;;;;6.30;3.38;;;8.40;88.80;;;;;;4986290;28;20045;-66
2024/03/27 03:31:17;;;;;;;6.03;3.53;;;8.30;88.80;;;;;;4991358;28;20030;-66
2024/03/27 03:34:03;;;;;;;5.30;3.40;;;8.40;88.90;;;;;;4987537;28;20512;-66
2024/03/27 03:36:49;;;;;;;6.68;3.42;;;8.40;89.00;;;;;;4982421;28;20422;-66
2024/03/27 03:39:35;;;;;;;6.18;3.60;;;8.40;89.10;;;;;;4986923;28;20475;-65
2024/03/27 03:42:21;;;;;;;5.90;3.70;;;8.40;89.10;;;;;;4977321;28;20035;-66
2024/03/27 03:45:07;;;;;;;6.35;3.40;;;8.30;89.00;;;;;;4992300;28;20556;-65
2024/03/27 03:47:53;;;;;;;10.80;4.05;;;8.30;89.00;;;;;;4986926;28;20038;-65
2024/03/27 03:50:39;;;;;;;5.18;3.08;;;8.30;89.10;;;;;;4989500;28;20050;-67
2024/03/27 03:53:25;;;;;;;6.18;3.40;;;8.30;89.10;;;;;;4987847;28;20027;-67
2024/03/27 03:56:11;;;;;;;6.95;3.55;;;8.30;89.10;;;;;;4993162;28;20430;-67
2024/03/27 03:58:57;;;;;;;5.72;3.58;;;8.30;89.10;;;;;;4986567;28;20052;-67
2024/03/27 04:01:43;;;;;;;5.60;3.20;;;8.30;89.20;;;;;;4990560;28;20034;-67
2024/03/27 04:04:29;;;;;;;7.22;3.65;;;8.40;89.30;;;;;;4996357;28;20434;-67
2024/03/27 04:07:15;;;;;;;8.23;3.65;;;8.30;89.30;;;;;;5012204;28;20030;-67
2024/03/27 04:10:02;;;;;;;7.18;4.00;;;8.30;89.30;;;;;;4993338;28;20053;-67
2024/03/27 04:12:48;;;;;;;5.63;3.63;;;8.30;89.20;;;;;;5011043;28;20061;-68
2024/03/27 04:15:39;;;;;;;5.63;2.60;;;8.30;89.20;;;;;;4999153;28;20113;-68
2024/03/27 04:18:26;;;;;;;5.40;3.40;;;8.30;89.10;;;;;;5001620;28;20046;-69
2024/03/27 04:21:12;;;;;;;14.43;4.70;;;8.30;89.20;;;;;;5008738;28;20032;-69
2024/03/27 04:23:58;;;;;;;4.88;3.80;;;8.30;89.20;;;;;;5003326;28;20034;-69
2024/03/27 04:26:43;;;;;;;4.78;2.92;;;8.30;89.20;;;;;;5008094;28;20042;-69
2024/03/27 04:29:31;;;;;;;6.68;3.83;;;8.30;89.30;;;;;;4992136;28;20041;-68
2024/03/27 04:32:16;;;;;;;6.68;3.72;;;8.30;89.40;;;;;;4989484;28;20084;-67
2024/03/27 04:35:02;;;;;;;5.22;3.22;;;8.30;89.50;;;;;;4999016;28;20025;-68
2024/03/27 04:37:48;;;;;;;4.95;3.40;;;8.30;89.60;;;;;;4995620;28;20414;-68
2024/03/27 04:40:35;;;;;;;10.60;4.00;;;8.30;89.60;;;;;;4996045;28;20390;-68
2024/03/27 04:43:21;;;;;;;5.40;3.70;;;8.30;89.60;;;;;;5006726;28;20042;-68
2024/03/27 04:46:07;;;;;;;5.28;3.50;;;8.30;89.60;;;;;;5001046;28;20480;-69
2024/03/27 04:48:54;;;;;;;7.18;4.00;;;8.30;89.60;;;;;;5007966;28;20382;-68
2024/03/27 04:51:40;;;;;;;4.88;3.50;;;8.30;89.70;;;;;;5010711;28;20070;-68
2024/03/27 04:54:26;;;;;;;6.25;3.90;;;8.20;89.70;;;;;;5006102;28;20036;-68
2024/03/27 04:57:11;;;;;;;7.47;4.05;;;8.20;89.70;;;;;;5006786;28;20042;-69
2024/03/27 04:59:58;;;;;;;4.65;3.05;;;8.20;89.70;;;;;;5000087;28;20076;-68
2024/03/27 05:02:44;;;;;;;5.70;3.05;;;8.20;89.70;;;;;;5006382;28;20048;-68
2024/03/27 05:05:33;;;;;;;7.65;3.58;;;8.20;89.80;;;;;;5008161;28;20132;-68
2024/03/27 05:08:19;;;;;;;7.43;4.05;;;8.20;89.80;;;;;;5010024;28;20076;-68
2024/03/27 05:11:06;;;;;;;7.70;3.65;;;8.20;89.90;;;;;;5009409;28;20036;-68
2024/03/27 05:13:52;;;;;;;6.35;4.07;;;8.20;89.90;;;;;;4989988;28;20124;-68
2024/03/27 05:16:37;;;;;;;6.35;3.40;;;8.20;90.00;;;;;;4992202;28;20045;-68
2024/03/27 05:19:25;;;;;;;6.95;4.38;;;8.20;90.00;;;;;;4997531;28;20099;-68
2024/03/27 05:22:15;;;;;;;4.70;3.20;;;8.20;90.00;;;;;;5011023;28;20391;-68
2024/03/27 05:25:01;;;;;;;7.13;3.67;;;8.20;90.00;;;;;;4996022;28;20018;-68
2024/03/27 05:27:47;;;;;;;11.13;3.67;;;8.20;90.00;;;;;;5011252;28;20095;-68
2024/03/27 05:30:35;;;;;;;6.78;3.42;;;8.20;90.00;;;;;;4998518;28;20039;-68
2024/03/27 05:33:21;;;;;;;8.00;3.75;;;8.30;90.00;;;;;;5009765;28;20038;-68
2024/03/27 05:36:07;;;;;;;5.20;3.30;;;8.30;90.10;;;;;;5004957;28;20034;-68
2024/03/27 05:38:52;;;;;;;6.32;3.33;;;8.30;90.10;;;;;;5001357;28;20026;-68
2024/03/27 05:41:39;;;;;;;6.10;3.80;;;8.30;90.10;;;;;;5006172;28;20038;-68
2024/03/27 05:44:25;;;;;;;6.07;3.67;;;8.40;90.20;;;;;;5004184;28;20034;-68
2024/03/27 05:47:12;;;;;;;6.53;3.53;;;8.40;90.10;;;;;;5009286;28;20038;-68
2024/03/27 05:49:58;;;;;;;4.88;3.30;;;8.50;90.20;;;;;;4995942;28;20466;-68
2024/03/27 05:52:44;;;;;;;6.63;3.60;;;8.50;90.20;;;;;;5003372;28;20481;-68
2024/03/27 05:55:30;;;;;;;6.03;3.30;;;8.50;90.20;;;;;;4998629;28;20041;-68
2024/03/27 05:58:16;;;;;;;6.45;3.70;;;8.60;90.20;;;;;;5005025;28;20049;-68
2024/03/27 06:01:02;;;;;;;7.18;3.22;;;8.60;90.20;;;;;;4983878;28;20537;-68
2024/03/27 06:03:50;;;;;;;8.52;3.90;;;8.70;90.20;;;;;;5006769;28;20031;-68
2024/03/27 06:06:36;;;;;;;6.82;3.45;;;8.70;90.10;;;;;;4972559;28;20047;-68
2024/03/27 06:09:23;;;;;;;5.55;3.22;;;8.80;90.20;;;;;;4983191;28;20066;-68
2024/03/27 06:12:09;;;;;;;5.90;3.42;;;8.80;90.10;;;;;;4972861;28;20487;-68
2024/03/27 06:14:55;;;;;;;8.57;4.00;;;8.80;90.20;;;;;;4972520;28;20035;-69
2024/03/27 06:17:41;;;;;;;8.55;3.80;;;8.90;90.20;;;;;;4974951;28;20507;-69
2024/03/27 06:20:27;;;;;;;6.68;3.30;;;8.90;90.20;;;;;;4986296;28;20378;-69
2024/03/27 06:23:13;;;;;;;6.85;3.83;;;9.00;90.10;;;;;;4994426;28;20034;-69
2024/03/27 06:26:00;;;;;;;5.82;3.70;;;9.00;90.20;;;;;;4992433;28;20516;-70
2024/03/27 06:28:46;;;;;;;4.95;2.90;;;9.10;90.20;;;;;;4984901;28;20038;-69
2024/03/27 06:31:32;;;;;;;6.15;3.50;;;9.20;90.20;;;;;;4993731;28;20030;-69
2024/03/27 06:34:18;;;;;;;8.70;3.72;;;9.20;90.10;;;;;;4989705;28;20034;-69
2024/03/27 06:37:04;;;;;;;5.93;3.47;;;9.30;90.20;;;;;;4972433;28;20047;-68
2024/03/27 06:39:50;;;;;;;5.57;3.13;;;9.40;90.20;;;;;;4970920;28;20049;-68
2024/03/27 06:42:37;;;;;;;5.25;3.40;;;9.50;90.10;;;;;;4989598;28;20053;-68
2024/03/27 06:45:22;;;;;;;7.15;3.97;;;9.50;90.00;;;;;;4980032;28;20102;-68
2024/03/27 06:48:12;;;;;;;5.82;3.38;;;9.60;90.00;;;;;;4986971;28;20034;-67
2024/03/27 06:50:58;;;;;;;6.25;2.95;;;9.70;90.00;;;;;;4986280;28;20037;-68
2024/03/27 06:53:44;;;;;;;10.05;4.28;;;9.80;90.00;;;;;;4989950;28;20042;-68
2024/03/27 06:56:30;;;;;;;5.60;3.35;;;10.00;90.00;;;;;;4991037;28;20034;-68
2024/03/27 06:59:16;;;;;;;5.60;4.03;;;10.00;89.80;;;;;;4991237;28;20116;-66
2024/03/27 07:02:02;;;;;;;8.43;3.35;;;10.10;89.70;;;;;;4984815;28;20441;-69
2024/03/27 07:04:48;;;;;;;5.30;3.03;;;10.20;89.50;;;;;;4978810;28;20092;-68
2024/03/27 07:07:34;;;;;;;7.53;3.28;;;10.30;89.40;;;;;;4999329;28;20045;-68
2024/03/27 07:10:20;;;;;;;4.05;2.90;;;10.50;89.10;;;;;;5001338;28;20108;-66
2024/03/27 07:13:06;;;;;;;8.07;3.72;;;10.50;88.90;;;;;;5001782;28;20029;-64
2024/03/27 07:15:54;;;;;;;7.82;3.58;;;10.60;88.90;;;;;;5001385;28;20375;-66
2024/03/27 07:18:40;;;;;;;6.35;3.58;;;10.70;88.50;;;;;;4999457;28;20113;-67
2024/03/27 07:21:26;;;;;;;5.13;3.28;;;10.80;88.60;;;;;;5002586;28;20427;-62
2024/03/27 07:24:12;;;;;;;9.20;3.00;;;10.90;88.40;;;;;;5004435;28;20528;-64
2024/03/27 07:26:58;;;;;;;8.32;2.92;;;11.00;88.20;;;;;;4998932;28;20045;-65
2024/03/27 07:29:44;;;;;;;4.53;2.90;;;11.10;88.10;;;;;;4998891;28;20464;-65
2024/03/27 07:32:30;;;;;;;6.55;3.33;;;11.20;87.60;;;;;;4993207;28;20108;-64
2024/03/27 07:35:16;;;;;;;5.72;2.90;;;11.30;87.50;;;;;;5001432;28;20060;-64
2024/03/27 07:38:02;;;;;;;5.38;3.17;;;11.40;87.40;;;;;;5005199;28;20046;-65
2024/03/27 07:40:49;;;;;;;6.00;2.63;;;11.40;87.20;;;;;;5003433;28;20038;-65
2024/03/27 07:43:35;;;;;;;4.70;2.80;;;11.50;87.10;;;;;;5012003;28;20120;-64
2024/03/27 07:46:20;;;;;;;7.25;3.03;;;11.60;87.00;;;;;;5002885;28;20032;-64
2024/03/27 07:49:06;;;;;;;4.93;2.78;;;11.70;86.90;;;;;;5005261;28;20038;-64
2024/03/27 07:51:52;;;;;;;4.13;2.78;;;11.80;86.70;;;;;;4998833;28;20026;-64
2024/03/27 07:54:38;;;;;;;5.32;3.00;;;11.80;86.20;;;;;;5001213;28;20140;-64
2024/03/27 07:57:24;;;;;;;6.40;2.70;;;11.90;85.80;;;;;;5008357;28;20049;-64
2024/03/27 08:00:11;;;;;;;6.93;3.40;;;11.90;85.60;;;;;;5005810;28;20034;-64
2024/03/27 08:02:57;;;;;;;6.22;2.60;;;12.00;85.30;;;;;;4996209;28;20533;-64
2024/03/27 08:05:46;;;;;;;7.07;3.03;;;12.10;85.30;;;;;;4989889;28;20088;-64
2024/03/27 08:08:32;;;;;;;5.57;2.60;;;12.10;85.60;;;;;;4998998;28;20530;-64
2024/03/27 08:11:18;;;;;;;4.07;2.60;;;12.30;85.50;;;;;;5002126;28;20030;-65
2024/03/27 08:14:05;;;;;;;8.63;3.38;;;12.30;85.50;;;;;;5011992;28;20121;-65
2024/03/27 08:16:50;;;;;;;4.93;2.47;;;12.40;85.80;;;;;;5007156;28;20512;-65
2024/03/27 08:19:40;;;;;;;5.43;2.95;;;12.50;85.50;;;;;;5007267;28;20438;-66
2024/03/27 08:22:26;;;;;;;4.47;2.42;;;12.60;85.00;;;;;;5004716;28;20401;-65
2024/03/27 08:25:12;;;;;;;5.22;2.85;;;12.70;85.00;;;;;;5000359;28;20038;-66
2024/03/27 08:27:58;;;;;;;3.70;2.20;;;12.80;84.60;;;;;;5003590;28;20037;-65
2024/03/27 08:30:44;;;;;;;5.50;2.55;;;12.90;84.40;;;;;;5004011;28;20083;-66
2024/03/27 08:33:30;;;;;;;4.50;2.40;;;13.10;84.10;;;;;;5006641;28;20049;-66
2024/03/27 08:36:16;;;;;;;4.07;2.50;;;13.20;83.80;;;;;;5002233;28;20113;-66
2024/03/27 08:39:03;;;;;;;3.92;2.33;;;13.30;83.50;;;;;;5006147;28;20034;-64
2024/03/27 08:41:51;;;;;;;5.88;2.55;;;13.40;83.50;;;;;;4998077;28;20030;-65
2024/03/27 08:44:38;;;;;;;3.70;2.13;;;13.50;83.10;;;;;;4999481;28;20334;-64
2024/03/27 08:47:25;;;;;;;6.47;2.78;;;13.60;82.90;;;;;;5009266;28;20037;-66
2024/03/27 08:50:14;;;;;;;3.42;2.22;;;13.60;82.60;;;;;;5006713;28;20034;-64
2024/03/27 08:53:00;;;;;;;6.30;2.60;;;13.70;82.40;;;;;;4996808;28;20030;-65
2024/03/27 08:55:46;;;;;;;7.78;2.97;;;13.80;82.50;;;;;;4997915;28;20539;-65
2024/03/27 08:58:32;;;;;;;4.22;2.60;;;13.80;81.90;;;;;;5010043;28;20041;-64
2024/03/27 09:01:18;;;;;;;5.50;2.80;;;13.90;81.80;;;;;;5009079;28;20030;-64
2024/03/27 09:04:04;;;;;;;3.88;1.98;;;13.90;81.50;;;;;;5002600;28;20041;-64
2024/03/27 09:06:50;;;;;;;3.80;2.33;;;14.00;81.30;;;;;;4989575;28;20034;-62
2024/03/27 09:09:36;;;;;;;2.88;2.08;;;14.00;81.20;;;;;;5005865;28;20033;-67
2024/03/27 09:12:22;;;;;;;4.43;2.13;;;14.10;80.80;;;;;;4998448;28;20029;-66
2024/03/27 09:15:08;;;;;;;4.07;2.42;;;14.10;80.60;;;;;;5000742;28;20053;-64
2024/03/27 09:17:55;;;;;;;3.38;2.00;;;14.20;80.50;;;;;;5003231;28;20037;-65
2024/03/27 09:20:41;;;;;;;4.93;2.63;;;14.20;80.30;;;;;;4997173;28;20054;-63
2024/03/27 09:23:28;;;;;;;5.25;1.77;;;14.20;80.10;;;;;;4987186;28;20383;-64
2024/03/27 09:26:14;;;;;;;3.17;2.13;;;14.20;79.80;;;;;;4996737;28;20049;-63
2024/03/27 09:29:00;;;;;;;3.28;2.25;;;14.30;79.90;;;;;;5003980;28;20034;-64
2024/03/27 09:31:46;;;;;;;3.40;1.85;;;14.30;79.70;;;;;;5005857;28;20029;-65
2024/03/27 09:34:33;;;;;;;4.28;2.00;;;14.40;79.90;;;;;;5000320;28;20137;-64
2024/03/27 09:37:19;;;;;;;3.42;2.10;;;14.40;79.70;;;;;;4992813;28;20041;-64
2024/03/27 09:40:05;;;;;;;3.83;2.33;;;14.40;79.60;;;;;;5002152;28;20044;-64
2024/03/27 09:42:54;;;;;;;4.32;2.00;;;14.40;79.60;;;;;;4989053;28;20145;-64
2024/03/27 09:45:41;;;;;;;6.35;2.15;;;14.50;79.20;;;;;;4987125;28;20038;-64
2024/03/27 09:48:28;;;;;;;5.30;2.42;;;14.60;79.20;;;;;;5007352;28;20033;-64
2024/03/27 09:51:16;;;;;;;5.63;2.90;;;14.60;79.00;;;;;;4996917;28;20030;-64
2024/03/27 09:54:06;;;;;;;7.45;2.70;;;14.70;79.00;;;;;;5003401;28;20061;-65
2024/03/27 09:56:57;;;;;;;6.20;3.22;;;14.80;78.90;;;;;;5012621;28;20049;-63
2024/03/27 09:59:43;;;;;;;5.78;2.45;;;14.80;78.70;;;;;;5000051;28;20026;-63
2024/03/27 10:02:28;;;;;;;3.70;2.17;;;14.90;78.70;;;;;;5011718;28;20379;-63
2024/03/27 10:05:17;;;;;;;5.45;1.88;;;15.00;78.60;;;;;;5000714;28;20049;-64
2024/03/27 10:08:04;;;;;;;5.18;2.20;;;15.10;78.60;;;;;;4983047;28;20065;-64
2024/03/27 10:10:50;;;;;;;4.55;2.00;;;15.20;78.40;;;;;;5006532;28;20025;-65
2024/03/27 10:13:36;;;;;;;4.57;2.10;;;15.20;78.20;;;;;;4992229;28;20111;-65
2024/03/27 10:16:22;;;;;;;4.63;1.98;;;15.30;78.10;;;;;;5009265;28;20121;-65
2024/03/27 10:19:08;;;;;;;5.38;2.15;;;15.40;78.20;;;;;;5009935;28;20117;-65
2024/03/27 10:21:54;;;;;;;2.90;2.00;;;15.50;78.00;;;;;;5009644;28;20041;-65
2024/03/27 10:24:42;;;;;;;5.88;2.47;;;15.60;77.80;;;;;;4993715;28;20022;-65
2024/03/27 10:27:29;;;;;;;4.38;2.20;;;15.60;77.30;;;;;;4991592;28;20060;-66
2024/03/27 10:30:15;;;;;;;4.75;1.95;;;15.70;77.30;;;;;;5008127;28;20025;-65
2024/03/27 10:33:01;;;;;;;7.38;2.13;;;15.80;77.20;;;;;;4997185;28;21909;-66
2024/03/27 10:35:50;;;;;;;3.35;2.00;;;15.90;77.10;;;;;;5003323;28;20028;-65
2024/03/27 10:38:42;;;;;;;4.47;2.35;;;15.90;77.00;;;;;;4989792;28;20559;-65
2024/03/27 10:41:29;;;;;;;2.78;2.13;;;16.00;77.00;;;;;;5001405;28;20041;-66
2024/03/27 10:44:17;;;;;;;2.53;1.80;;;16.10;76.90;;;;;;5008993;28;20042;-65
2024/03/27 10:47:06;;;;;;;3.70;1.95;;;16.20;76.70;;;;;;5006402;28;20375;-66
2024/03/27 10:49:52;;;;;;;5.07;1.88;;;16.30;76.60;;;;;;5013654;28;20038;-65
2024/03/27 10:52:39;;;;;;;6.00;2.17;;;16.40;75.90;;;;;;5010698;28;20030;-65
2024/03/27 10:55:27;;;;;;;7.05;1.90;;;16.50;76.20;;;;;;5010638;28;20026;-65
2024/03/27 10:58:13;;;;;;;3.92;1.90;;;16.50;76.10;;;;;;5005434;28;20409;-65
2024/03/27 11:01:00;;;;;;;2.70;1.60;;;16.60;75.80;;;;;;5008106;28;20159;-65
2024/03/27 11:03:52;;;;;;;7.15;2.00;;;16.70;75.70;;;;;;5008349;28;20169;-65
2024/03/27 11:06:38;;;;;;;2.92;1.90;;;16.80;75.10;;;;;;5011383;28;20034;-66
2024/03/27 11:09:24;;;;;;;4.93;2.17;;;16.90;75.20;;;;;;4996463;28;20034;-65
2024/03/27 11:12:11;;;;;;;5.72;2.13;;;17.00;75.10;;;;;;5004016;28;20140;-66
2024/03/27 11:15:03;;;;;;;5.80;1.77;;;17.20;75.10;;;;;;4997780;28;20108;-66
2024/03/27 11:17:57;;;;;;;2.83;1.60;;;17.30;74.90;;;;;;4989890;28;20038;-66
2024/03/27 11:20:51;;;;;;;3.33;1.65;;;17.30;74.80;;;;;;5007192;28;20109;-66
2024/03/27 11:23:37;;;;;;;5.00;1.70;;;17.30;74.30;;;;;;4994725;28;20042;-66
2024/03/27 11:26:33;;;;;;;3.88;1.75;;;17.30;73.70;;;;;;5008408;28;20084;-66
2024/03/27 11:29:26;;;;;;;5.00;1.83;;;17.30;73.30;;;;;;5011076;28;20061;-66
2024/03/27 11:32:13;;;;;;;3.55;1.58;;;17.40;73.40;;;;;;5007859;28;20038;-66
2024/03/27 11:35:00;;;;;;;2.83;1.70;;;17.30;73.40;;;;;;4989140;28;20034;-65
2024/03/27 11:37:46;;;;;;;4.57;2.00;;;17.40;73.40;;;;;;4993545;28;20046;-66
2024/03/27 11:40:32;;;;;;;2.92;1.70;;;17.50;73.20;;;;;;5002141;28;20389;-66
2024/03/27 11:43:19;;;;;;;2.92;1.80;;;17.50;73.10;;;;;;5001689;28;20135;-66
2024/03/27 11:46:05;;;;;;;4.35;1.55;;;17.60;73.20;;;;;;4997522;28;20034;-67
2024/03/27 11:48:51;;;;;;;3.78;1.80;;;17.60;73.10;;;;;;5001242;28;20041;-66
2024/03/27 11:51:37;;;;;;;7.05;1.83;;;17.70;73.30;;;;;;5003740;28;20398;-66
2024/03/27 11:54:27;;;;;;;3.92;1.85;;;17.70;73.20;;;;;;4992377;28;20041;-66
2024/03/27 11:57:13;;;;;;;4.70;1.73;;;17.80;73.00;;;;;;4998682;28;20104;-66
2024/03/27 12:00:07;;;;;;;4.45;1.63;;;17.80;72.80;;;;;;5008730;28;20033;-66
2024/03/27 12:02:53;;;;;;;3.50;1.73;;;17.90;72.60;;;;;;5011716;28;20029;-66
2024/03/27 12:05:39;;;;;;;3.17;2.10;;;17.90;72.30;;;;;;4993250;28;20050;-66
2024/03/27 12:08:25;;;;;;;4.63;1.65;;;17.90;72.30;;;;;;5002097;28;20037;-66
2024/03/27 12:11:11;;;;;;;2.97;1.80;;;18.00;72.50;;;;;;4993228;28;20025;-66
2024/03/27 12:13:58;;;;;;;3.95;1.67;;;18.10;72.10;;;;;;4989255;28;20613;-66
2024/03/27 12:16:45;;;;;;;3.67;1.60;;;18.10;72.00;;;;;;4987913;28;20033;-66
2024/03/27 12:19:30;;;;;;;5.18;2.28;;;18.20;71.90;;;;;;4990261;28;20073;-66
2024/03/27 12:22:17;;;;;;;4.65;2.08;;;18.20;71.80;;;;;;5006753;28;20033;-66
2024/03/27 12:25:05;;;;;;;2.95;1.70;;;18.40;71.90;;;;;;5006116;28;20038;-66
2024/03/27 12:27:51;;;;;;;5.80;2.15;;;18.40;71.60;;;;;;4990166;28;20367;-66
2024/03/27 12:30:38;;;;;;;2.67;1.83;;;18.40;71.70;;;;;;4988251;28;20473;-67
2024/03/27 12:33:25;;;;;;;3.95;1.90;;;18.50;71.70;;;;;;4998453;28;20034;-66
2024/03/27 12:36:11;;;;;;;4.28;1.80;;;18.60;71.60;;;;;;4990906;28;20040;-66
2024/03/27 12:38:57;;;;;;;4.30;1.70;;;18.60;71.70;;;;;;4988401;28;20509;-66
2024/03/27 12:41:43;;;;;;;2.88;1.80;;;18.60;71.20;;;;;;5001231;28;20076;-66
2024/03/27 12:44:29;;;;;;;2.83;1.48;;;18.70;71.10;;;;;;5004912;28;20492;-66
2024/03/27 12:47:15;;;;;;;2.50;1.40;;;18.80;71.10;;;;;;5000055;28;20061;-66
2024/03/27 12:50:01;;;;;;;5.25;1.73;;;18.80;70.90;;;;;;4987353;28;20037;-67
2024/03/27 12:52:47;;;;;;;1.83;1.55;;;18.90;70.70;;;;;;5003664;28;20468;-66
2024/03/27 12:55:33;;;;;;;2.00;1.35;;;19.00;70.70;;;;;;5007612;28;20394;-66
2024/03/27 12:58:19;;;;;;;2.20;1.40;;;19.00;70.80;;;;;;4995597;28;20048;-66
2024/03/27 13:01:05;;;;;;;2.40;1.60;;;19.10;70.70;;;;;;5010575;28;20042;-66
2024/03/27 13:03:51;;;;;;;3.90;2.00;;;19.20;70.70;;;;;;5009421;28;20038;-66
2024/03/27 13:06:37;;;;;;;3.67;1.80;;;19.10;70.20;;;;;;5004557;28;20042;-66
2024/03/27 13:09:23;;;;;;;4.07;1.95;;;19.20;70.40;;;;;;4992764;28;20072;-66
2024/03/27 13:12:09;;;;;;;4.47;2.30;;;19.20;70.50;;;;;;4997046;28;20462;-76
2024/03/27 13:14:55;;;;;;;3.65;1.80;;;19.30;70.50;;;;;;4995354;28;20069;-76
2024/03/27 13:17:41;;;;;;;4.20;1.50;;;19.40;70.20;;;;;;4994454;28;20077;-76
2024/03/27 13:20:27;;;;;;;3.10;1.48;;;19.40;70.00;;;;;;5006773;28;20036;-75
2024/03/27 13:23:13;;;;;;;3.25;1.60;;;19.40;69.60;;;;;;5009779;28;20482;-76
2024/03/27 13:25:59;;;;;;;2.42;1.50;;;19.40;69.60;;;;;;5010190;28;20073;-75
2024/03/27 13:28:45;;;;;;;4.47;1.80;;;19.50;69.70;;;;;;4994846;28;20128;-75
2024/03/27 13:31:31;;;;;;;3.30;1.60;;;19.50;69.60;;;;;;5002231;28;20083;-75
2024/03/27 13:34:17;;;;;;;16.83;2.13;;;19.60;69.60;;;;;;4997904;28;20034;-75
2024/03/27 13:37:05;;;;;;;2.45;1.85;;;19.60;69.40;;;;;;5009605;28;20046;-75
2024/03/27 13:39:51;;;;;;;2.88;1.75;;;19.70;69.50;;;;;;5009718;28;20026;-75
2024/03/27 13:42:37;;;;;;;4.80;2.08;;;19.60;69.40;;;;;;5007066;28;20049;-75
2024/03/27 13:45:23;;;;;;;2.83;1.60;;;19.70;69.60;;;;;;5009015;28;20034;-75
2024/03/27 13:48:09;;;;;;;4.70;1.83;;;19.70;69.40;;;;;;5006922;28;20220;-75
2024/03/27 13:50:55;;;;;;;2.53;1.58;;;19.80;69.60;;;;;;4993190;28;20036;-67
2024/03/27 13:53:41;;;;;;;3.58;1.75;;;19.90;69.90;;;;;;5007207;28;20037;-67
2024/03/27 13:56:27;;;;;;;2.03;1.42;;;20.00;69.20;;;;;;5002405;28;20065;-67
2024/03/27 13:59:13;;;;;;;2.97;1.50;;;20.00;68.90;;;;;;5005084;28;20512;-67
2024/03/27 14:01:59;;;;;;;1.75;1.33;;;20.10;68.90;;;;;;5004736;28;20482;-67
2024/03/27 14:04:45;;;;;;;4.30;1.80;;;20.20;69.10;;;;;;5001932;28;20034;-67
2024/03/27 14:07:31;;;;;;;2.47;1.30;;;20.20;69.00;;;;;;5008830;28;20110;-67
2024/03/27 14:10:17;;;;;;;3.60;1.65;;;20.30;69.10;;;;;;5007853;28;20029;-67
2024/03/27 14:13:03;;;;;;;3.17;1.58;;;20.30;68.50;;;;;;5002524;28;20124;-66
2024/03/27 14:15:49;;;;;;;4.07;1.73;;;20.30;68.30;;;;;;5009357;28;20465;-67
2024/03/27 14:18:35;;;;;;;4.03;2.20;;;20.30;68.70;;;;;;5008543;28;20045;-67
2024/03/27 14:21:21;;;;;;;4.45;1.85;;;20.30;68.50;;;;;;4998809;28;20398;-66
2024/03/27 14:24:08;;;;;;;3.65;2.17;;;20.20;67.90;;;;;;5008839;28;20049;-67
2024/03/27 14:26:54;;;;;;;7.25;1.80;;;20.20;68.00;;;;;;5009253;28;20500;-66
2024/03/27 14:29:39;;;;;;;4.80;1.90;;;20.20;68.10;;;;;;5007834;28;20034;-67